createdAt,value
2018-08-18T00:00:21.812Z,2.77
2018-08-18T00:02:50.345Z,2.83
2018-08-18T00:05:18.984Z,2.23
2018-08-18T00:07:47.558Z,2.73
2018-08-18T00:10:18.673Z,2.50
2018-08-18T00:12:47.240Z,2.80
2018-08-18T00:15:15.741Z,2.67
2018-08-18T00:17:44.257Z,3.00
2018-08-18T00:20:14.749Z,2.47
2018-08-18T00:22:43.282Z,2.70
2018-08-18T00:25:11.843Z,2.60
2018-08-18T00:27:40.347Z,2.80
2018-08-18T00:30:15.143Z,3.27
2018-08-18T00:32:43.963Z,2.90
2018-08-18T00:35:12.493Z,2.80
2018-08-18T00:37:41.062Z,3.30
2018-08-18T00:40:10.630Z,2.70
2018-08-18T00:42:39.523Z,2.97
2018-08-18T00:45:09.758Z,3.07
2018-08-18T00:47:38.636Z,3.03
2018-08-18T00:50:07.629Z,3.33
2018-08-18T00:52:36.262Z,4.07
2018-08-18T00:55:04.937Z,4.07
2018-08-18T00:57:33.796Z,3.40
2018-08-18T01:00:02.370Z,3.50
2018-08-18T01:02:30.905Z,3.23
2018-08-18T01:05:00.681Z,3.13
2018-08-18T01:07:30.203Z,4.20
2018-08-18T01:09:59.166Z,3.40
2018-08-18T01:12:28.172Z,3.07
2018-08-18T01:14:57.067Z,4.10
2018-08-18T01:17:25.904Z,3.87
2018-08-18T01:19:55.855Z,3.77
2018-08-18T01:22:24.368Z,3.77
2018-08-18T01:24:53.444Z,4.20
2018-08-18T01:27:22.325Z,4.03
2018-08-18T01:29:56.024Z,3.67
2018-08-18T01:32:24.621Z,4.00
2018-08-18T01:34:54.016Z,3.63
2018-08-18T01:37:22.554Z,3.70
2018-08-18T01:39:52.882Z,4.03
2018-08-18T01:42:21.599Z,3.70
2018-08-18T01:44:52.205Z,3.97
2018-08-18T01:47:20.829Z,4.13
2018-08-18T01:49:49.345Z,4.17
2018-08-18T01:52:25.596Z,4.60
2018-08-18T01:54:54.146Z,3.80
2018-08-18T01:57:23.361Z,3.50
2018-08-18T01:59:52.115Z,4.10
2018-08-18T02:02:22.875Z,5.27
2018-08-18T02:04:51.521Z,3.53
2018-08-18T02:07:23.425Z,3.77
2018-08-18T02:09:52.081Z,4.23
2018-08-18T02:12:20.707Z,3.40
2018-08-18T02:14:49.245Z,3.57
2018-08-18T02:17:23.661Z,4.60
2018-08-18T02:19:52.461Z,3.37
2018-08-18T02:22:21.374Z,3.60
2018-08-18T02:24:49.888Z,4.75
2018-08-18T02:27:18.393Z,4.93
2018-08-18T02:29:58.034Z,5.37
2018-08-18T02:32:34.456Z,5.43
2018-08-18T02:35:03.006Z,6.23
2018-08-18T02:37:31.741Z,6.30
2018-08-18T02:40:00.354Z,7.00
2018-08-18T02:42:28.820Z,7.80
2018-08-18T02:44:57.341Z,8.27
2018-08-18T02:47:25.862Z,7.60
2018-08-18T02:49:55.465Z,8.53
2018-08-18T02:52:25.882Z,8.63
2018-08-18T02:54:55.992Z,8.27
2018-08-18T02:57:56.082Z,8.40
2018-08-18T03:00:30.006Z,8.53
2018-08-18T03:02:58.569Z,7.40
2018-08-18T03:05:28.132Z,6.50
2018-08-18T03:07:56.676Z,6.63
2018-08-18T03:10:26.314Z,6.23
2018-08-18T03:12:57.793Z,6.07
2018-08-18T03:16:04.566Z,6.13
2018-08-18T03:18:36.427Z,6.10
2018-08-18T03:21:05.137Z,5.80
2018-08-18T03:23:34.436Z,5.87
2018-08-18T03:26:03.005Z,6.70
2018-08-18T03:28:36.765Z,6.10
2018-08-18T03:31:05.885Z,6.23
2018-08-18T03:33:34.401Z,5.57
2018-08-18T03:36:12.930Z,6.00
2018-08-18T03:38:41.485Z,6.13
2018-08-18T03:41:09.996Z,6.57
2018-08-18T03:43:38.514Z,5.77
2018-08-18T03:46:07.024Z,5.70
2018-08-18T03:48:35.615Z,6.13
2018-08-18T03:51:04.149Z,6.03
2018-08-18T03:53:32.770Z,6.47
2018-08-18T03:56:01.290Z,6.37
2018-08-18T03:58:40.540Z,5.93
2018-08-18T04:01:09.057Z,6.40
2018-08-18T04:03:37.604Z,6.50
2018-08-18T04:06:06.253Z,6.47
2018-08-18T04:08:34.769Z,6.00
2018-08-18T04:11:03.341Z,6.83
2018-08-18T04:13:31.855Z,6.37
2018-08-18T04:16:00.377Z,7.13
2018-08-18T04:18:28.886Z,7.03
2018-08-18T04:20:57.385Z,7.97
2018-08-18T04:23:25.919Z,8.23
2018-08-18T04:25:54.679Z,8.17
2018-08-18T04:28:23.183Z,7.33
2018-08-18T04:30:51.755Z,7.93
2018-08-18T04:33:20.262Z,7.40
2018-08-18T04:35:53.849Z,7.73
2018-08-18T04:38:22.357Z,7.10
2018-08-18T04:40:50.861Z,6.87
2018-08-18T04:43:19.376Z,7.37
2018-08-18T04:45:47.886Z,7.07
2018-08-18T04:48:36.197Z,7.37
2018-08-18T04:51:04.725Z,6.30
2018-08-18T04:53:33.254Z,7.03
2018-08-18T04:56:01.762Z,6.83
2018-08-18T04:58:30.283Z,6.77
2018-08-18T05:00:58.801Z,6.10
2018-08-18T05:03:27.343Z,6.60
2018-08-18T05:05:55.877Z,7.50
2018-08-18T05:08:24.425Z,7.00
2018-08-18T05:10:53.037Z,7.30
2018-08-18T05:13:21.562Z,7.03
2018-08-18T05:15:50.109Z,7.87
2018-08-18T05:18:18.645Z,8.20
2018-08-18T05:20:48.693Z,8.47
2018-08-18T05:23:23.570Z,8.07
2018-08-18T05:25:52.985Z,8.33
2018-08-18T05:28:21.858Z,9.23
2018-08-18T05:30:52.494Z,8.60
2018-08-18T05:33:21.039Z,8.20
2018-08-18T05:35:49.557Z,8.67
2018-08-18T05:38:18.089Z,9.67
2018-08-18T05:40:46.588Z,9.87
2018-08-18T05:43:15.094Z,8.77
2018-08-18T05:45:43.886Z,9.17
2018-08-18T05:48:12.433Z,9.13
2018-08-18T05:50:40.941Z,9.60
2018-08-18T05:53:17.943Z,9.97
2018-08-18T05:55:46.937Z,10.03
2018-08-18T05:58:15.497Z,9.10
2018-08-18T06:00:44.013Z,10.20
2018-08-18T06:03:19.150Z,10.67
2018-08-18T06:05:47.849Z,9.13
2018-08-18T06:08:16.372Z,10.90
2018-08-18T06:10:44.946Z,9.50
2018-08-18T06:13:17.681Z,10.40
2018-08-18T06:16:11.830Z,11.10
2018-08-18T06:18:41.031Z,9.93
2018-08-18T06:21:09.545Z,9.70
2018-08-18T06:23:38.788Z,10.07
2018-08-18T06:26:07.873Z,10.37
2018-08-18T06:28:36.877Z,10.27
2018-08-18T06:31:05.493Z,9.90
2018-08-18T06:33:34.033Z,9.93
2018-08-18T06:36:03.084Z,10.20
2018-08-18T06:38:31.679Z,10.20
2018-08-18T06:41:02.317Z,9.67
2018-08-18T06:43:32.130Z,9.23
2018-08-18T06:46:01.196Z,8.67
2018-08-18T06:48:30.779Z,8.83
2018-08-18T06:50:59.379Z,9.27
2018-08-18T06:53:28.820Z,9.70
2018-08-18T06:55:59.745Z,8.27
2018-08-18T06:58:28.341Z,8.53
2018-08-18T07:00:56.839Z,8.00
2018-08-18T07:03:32.011Z,8.30
2018-08-18T07:06:01.099Z,9.13
2018-08-18T07:08:30.395Z,9.23
2018-08-18T07:10:58.926Z,8.93
2018-08-18T07:13:27.457Z,9.53
2018-08-18T07:15:55.981Z,7.97
2018-08-18T07:18:24.537Z,8.07
2018-08-18T07:20:53.263Z,6.97
2018-08-18T07:23:21.814Z,7.50
2018-08-18T07:25:56.993Z,6.73
2018-08-18T07:28:25.513Z,6.30
2018-08-18T07:30:54.348Z,6.27
2018-08-18T07:33:22.949Z,5.83
2018-08-18T07:35:51.534Z,5.53
2018-08-18T07:38:20.041Z,5.20
2018-08-18T07:40:51.089Z,5.70
2018-08-18T07:43:27.397Z,5.80
2018-08-18T07:45:57.426Z,5.13
2018-08-18T07:48:25.927Z,4.43
2018-08-18T07:50:54.495Z,5.00
2018-08-18T07:53:23.025Z,4.53
2018-08-18T07:55:51.576Z,4.13
2018-08-18T07:58:21.522Z,4.87
2018-08-18T08:00:50.050Z,4.20
2018-08-18T08:03:19.235Z,3.87
2018-08-18T08:05:47.834Z,3.60
2018-08-18T08:08:16.375Z,4.03
2018-08-18T08:10:44.930Z,3.33
2018-08-18T08:13:14.337Z,3.70
2018-08-18T08:15:42.851Z,3.50
2018-08-18T08:18:12.884Z,4.03
2018-08-18T08:20:41.489Z,4.37
2018-08-18T08:23:10.037Z,4.22
2018-08-18T08:25:38.612Z,4.10
2018-08-18T08:28:07.176Z,3.47
2018-08-18T08:30:35.687Z,3.40
2018-08-18T08:33:04.229Z,3.73
2018-08-18T08:35:32.902Z,3.70
2018-08-18T08:38:01.402Z,4.80
2018-08-18T08:40:29.989Z,4.13
2018-08-18T08:42:58.526Z,3.73
2018-08-18T08:45:27.073Z,3.60
2018-08-18T08:47:56.468Z,3.67
2018-08-18T08:50:25.408Z,3.77
2018-08-18T08:52:56.982Z,3.47
2018-08-18T08:56:44.643Z,3.53
2018-08-18T08:59:13.169Z,3.73
2018-08-18T09:01:41.669Z,3.63
2018-08-18T09:04:10.177Z,3.93
2018-08-18T09:06:42.917Z,3.80
2018-08-18T09:09:11.454Z,4.27
2018-08-18T09:11:40.038Z,4.30
2018-08-18T09:14:08.922Z,4.40
2018-08-18T09:16:37.439Z,4.40
2018-08-18T09:19:05.976Z,3.90
2018-08-18T09:21:40.559Z,4.33
2018-08-18T09:24:09.125Z,4.20
2018-08-18T09:26:43.022Z,4.43
2018-08-18T09:29:12.382Z,3.63
2018-08-18T09:31:41.582Z,4.53
2018-08-18T09:34:10.185Z,3.70
2018-08-18T09:36:38.728Z,4.17
2018-08-18T09:39:10.561Z,4.07
2018-08-18T09:41:39.606Z,4.27
2018-08-18T09:44:15.087Z,4.20
2018-08-18T09:46:44.409Z,3.63
2018-08-18T09:49:14.223Z,3.57
2018-08-18T09:51:42.823Z,4.00
2018-08-18T09:54:11.415Z,4.50
2018-08-18T09:56:39.944Z,4.20
2018-08-18T09:59:08.593Z,3.83
2018-08-18T10:01:37.360Z,3.53
2018-08-18T10:04:05.996Z,3.90
2018-08-18T10:06:34.640Z,4.97
2018-08-18T10:09:03.829Z,3.43
2018-08-18T10:11:32.785Z,3.00
2018-08-18T10:14:01.361Z,3.30
2018-08-18T10:16:29.867Z,3.03
2018-08-18T10:18:59.238Z,2.97
2018-08-18T10:21:27.887Z,3.53
2018-08-18T10:23:56.429Z,3.43
2018-08-18T10:26:24.961Z,3.70
2018-08-18T10:29:08.869Z,3.43
2018-08-18T10:31:41.601Z,3.10
2018-08-18T10:34:10.115Z,3.00
2018-08-18T10:36:38.661Z,3.10
2018-08-18T10:39:08.254Z,2.70
2018-08-18T10:41:46.842Z,2.50
2018-08-18T10:44:15.471Z,2.63
2018-08-18T10:46:44.402Z,3.70
2018-08-18T10:51:26.505Z,3.13
2018-08-18T10:53:55.089Z,3.43
2018-08-18T10:56:24.337Z,4.23
2018-08-18T10:59:13.512Z,3.60
2018-08-18T11:01:59.608Z,3.40
2018-08-18T11:04:29.728Z,3.53
2018-08-18T11:06:58.290Z,3.00
2018-08-18T11:09:26.839Z,2.83
2018-08-18T11:11:55.503Z,2.37
2018-08-18T11:14:23.962Z,2.73
2018-08-18T11:16:52.465Z,2.43
2018-08-18T11:19:21.227Z,2.77
2018-08-18T11:21:59.728Z,2.60
2018-08-18T11:24:28.246Z,2.17
2018-08-18T11:26:56.742Z,2.47
2018-08-18T11:29:25.261Z,2.77
2018-08-18T11:31:53.794Z,2.83
2018-08-18T11:34:22.326Z,2.30
2018-08-18T11:37:01.187Z,2.20
2018-08-18T11:39:30.909Z,2.10
2018-08-18T11:41:59.901Z,3.17
2018-08-18T11:44:28.782Z,2.50
2018-08-18T11:46:57.354Z,2.73
2018-08-18T11:49:25.874Z,2.53
2018-08-18T11:51:55.613Z,3.10
2018-08-18T11:54:24.201Z,3.03
2018-08-18T11:56:54.842Z,3.30
2018-08-18T11:59:23.347Z,2.60
2018-08-18T12:01:53.775Z,3.17
2018-08-18T12:04:22.873Z,3.17
2018-08-18T12:06:57.905Z,3.00
2018-08-18T12:09:26.668Z,3.30
2018-08-18T12:11:55.198Z,3.23
2018-08-18T12:14:23.773Z,2.80
2018-08-18T12:16:52.413Z,2.97
2018-08-18T12:19:20.980Z,3.20
2018-08-18T12:21:49.545Z,3.67
2018-08-18T12:24:19.621Z,3.20
2018-08-18T12:26:59.362Z,3.30
2018-08-18T12:29:30.784Z,2.90
2018-08-18T12:31:59.588Z,3.20
2018-08-18T12:34:28.118Z,3.20
2018-08-18T12:36:56.810Z,3.50
2018-08-18T12:39:25.217Z,3.40
2018-08-18T12:41:53.762Z,3.70
2018-08-18T12:44:27.660Z,3.43
2018-08-18T12:46:56.194Z,3.10
2018-08-18T12:49:24.747Z,3.27
2018-08-18T12:51:53.269Z,3.50
2018-08-18T12:54:21.850Z,3.43
2018-08-18T12:56:50.376Z,3.80
2018-08-18T12:59:18.921Z,3.40
2018-08-18T13:01:49.339Z,3.87
2018-08-18T13:04:19.514Z,3.90
2018-08-18T13:06:49.951Z,3.10
2018-08-18T13:09:19.637Z,3.47
2018-08-18T13:11:49.357Z,3.50
2018-08-18T13:14:20.221Z,3.33
2018-08-18T13:16:48.841Z,4.00
2018-08-18T13:19:19.406Z,3.67
2018-08-18T13:21:47.943Z,3.93
2018-08-18T13:24:16.635Z,3.83
2018-08-18T13:26:45.144Z,3.80
2018-08-18T13:29:13.805Z,3.73
2018-08-18T13:31:43.342Z,3.17
2018-08-18T13:34:13.261Z,3.30
2018-08-18T13:36:43.083Z,3.90
2018-08-18T13:39:15.672Z,4.07
2018-08-18T13:41:44.997Z,4.10
2018-08-18T13:44:35.758Z,4.07
2018-08-18T13:47:04.275Z,4.20
2018-08-18T13:49:32.825Z,3.97
2018-08-18T13:52:01.372Z,5.00
2018-08-18T13:54:29.891Z,4.23
2018-08-18T13:56:58.397Z,4.00
2018-08-18T13:59:42.690Z,3.73
2018-08-18T14:02:11.397Z,3.97
2018-08-18T14:04:40.478Z,4.10
2018-08-18T14:07:09.537Z,3.50
2018-08-18T14:09:38.093Z,4.17
2018-08-18T14:12:11.846Z,4.43
2018-08-18T14:14:40.373Z,3.80
2018-08-18T14:17:09.728Z,3.90
2018-08-18T14:19:38.238Z,3.80
2018-08-18T14:22:08.265Z,3.73
2018-08-18T14:24:37.874Z,3.87
2018-08-18T14:27:13.044Z,3.97
2018-08-18T14:29:41.597Z,3.70
2018-08-18T14:32:18.401Z,3.80
2018-08-18T14:34:54.032Z,3.80
2018-08-18T14:37:22.575Z,3.57
2018-08-18T14:39:51.217Z,3.67
2018-08-18T14:42:19.758Z,3.57
2018-08-18T14:44:48.370Z,3.97
2018-08-18T14:47:16.817Z,3.43
2018-08-18T14:49:45.373Z,3.23
2018-08-18T14:52:13.881Z,3.13
2018-08-18T14:54:42.403Z,3.43
2018-08-18T14:57:10.914Z,2.97
2018-08-18T14:59:39.434Z,3.40
2018-08-18T15:02:08.337Z,2.70
2018-08-18T15:04:36.914Z,2.87
2018-08-18T15:07:05.450Z,2.83
2018-08-18T15:09:43.213Z,2.40
2018-08-18T15:12:11.782Z,2.00
2018-08-18T15:14:40.299Z,2.23
2018-08-18T15:17:08.863Z,1.90
2018-08-18T15:19:37.451Z,2.50
2018-08-18T15:22:09.462Z,2.30
2018-08-18T15:24:38.173Z,2.10
2018-08-18T15:27:06.733Z,2.83
2018-08-18T15:29:35.238Z,2.73
2018-08-18T15:32:03.767Z,2.30
2018-08-18T15:34:32.293Z,2.40
2018-08-18T15:37:01.155Z,2.20
2018-08-18T15:39:30.126Z,2.40
2018-08-18T15:42:00.027Z,1.97
2018-08-18T15:44:28.590Z,2.00
2018-08-18T15:46:57.516Z,1.80
2018-08-18T15:49:26.097Z,1.47
2018-08-18T15:51:54.983Z,1.67
2018-08-18T15:54:23.796Z,1.40
2018-08-18T15:56:52.473Z,1.43
2018-08-18T15:59:21.057Z,1.33
2018-08-18T16:01:49.638Z,1.33
2018-08-18T16:04:18.133Z,1.67
2018-08-18T16:06:46.891Z,1.50
2018-08-18T16:09:15.421Z,1.30
2018-08-18T16:11:43.935Z,1.30
2018-08-18T16:14:12.519Z,0.97
2018-08-18T16:16:55.506Z,1.53
2018-08-18T16:19:24.400Z,1.83
2018-08-18T16:21:53.038Z,2.10
2018-08-18T16:24:44.433Z,1.80
2018-08-18T16:27:13.089Z,1.73
2018-08-18T16:29:42.219Z,2.20
2018-08-18T16:32:22.404Z,1.47
2018-08-18T16:34:59.850Z,2.22
2018-08-18T16:37:28.441Z,2.13
2018-08-18T16:39:57.345Z,2.10
2018-08-18T16:42:25.865Z,1.80
2018-08-18T16:44:54.400Z,1.83
2018-08-18T16:47:22.929Z,1.97
2018-08-18T16:49:51.470Z,1.70
2018-08-18T16:52:20.006Z,2.37
2018-08-18T16:54:48.541Z,2.30
2018-08-18T16:57:17.101Z,2.23
2018-08-18T16:59:45.665Z,3.07
2018-08-18T17:02:29.798Z,2.70
2018-08-18T17:04:58.516Z,3.13
2018-08-18T17:07:27.329Z,3.57
2018-08-18T17:09:55.965Z,3.10
2018-08-18T17:12:28.161Z,3.70
2018-08-18T17:14:56.730Z,2.67
2018-08-18T17:17:25.691Z,3.10
2018-08-18T17:19:54.306Z,3.13
2018-08-18T17:22:22.862Z,2.50
2018-08-18T17:24:51.380Z,2.13
2018-08-18T17:27:19.913Z,2.17
2018-08-18T17:29:50.228Z,2.70
2018-08-18T17:32:18.762Z,2.57
2018-08-18T17:34:47.317Z,2.37
2018-08-18T17:37:15.857Z,2.80
2018-08-18T17:39:44.402Z,2.92
2018-08-18T17:42:12.914Z,3.10
2018-08-18T17:44:41.465Z,3.43
2018-08-18T17:47:10.842Z,3.50
2018-08-18T17:49:51.513Z,3.60
2018-08-18T17:52:20.278Z,3.47
2018-08-18T17:55:04.950Z,3.30
2018-08-18T17:57:33.781Z,3.73
2018-08-18T18:00:07.484Z,3.80
2018-08-18T18:02:41.885Z,3.87
2018-08-18T18:05:10.452Z,3.70
2018-08-18T18:07:39.090Z,3.60
2018-08-18T18:10:07.628Z,3.90
2018-08-18T18:12:36.296Z,4.20
2018-08-18T18:15:37.750Z,3.83
2018-08-18T18:18:08.171Z,3.80
2018-08-18T18:20:36.696Z,3.67
2018-08-18T18:23:07.868Z,3.40
2018-08-18T18:25:36.387Z,3.43
2018-08-18T18:28:04.930Z,3.23
2018-08-18T18:30:33.481Z,3.23
2018-08-18T18:33:02.066Z,2.97
2018-08-18T18:35:30.586Z,3.50
2018-08-18T18:38:00.330Z,3.10
2018-08-18T18:40:32.378Z,2.77
2018-08-18T18:43:00.898Z,2.60
2018-08-18T18:45:29.412Z,3.40
2018-08-18T18:47:57.939Z,2.87
2018-08-18T18:50:26.469Z,2.67
2018-08-18T18:52:55.018Z,2.97
2018-08-18T18:55:23.550Z,2.93
2018-08-18T18:58:04.283Z,2.60
2018-08-18T19:00:34.501Z,2.87
2018-08-18T19:03:03.457Z,2.87
2018-08-18T19:05:32.505Z,3.03
2018-08-18T19:08:08.422Z,3.10
2018-08-18T19:10:37.110Z,2.83
2018-08-18T19:13:05.749Z,3.20
2018-08-18T19:15:34.310Z,3.40
2018-08-18T19:18:02.857Z,3.40
2018-08-18T19:20:31.531Z,3.33
2018-08-18T19:23:07.564Z,3.47
2018-08-18T19:25:37.145Z,3.70
2018-08-18T19:28:05.690Z,3.13
2018-08-18T19:30:35.417Z,3.80
2018-08-18T19:33:03.934Z,3.77
2018-08-18T19:35:37.790Z,4.40
2018-08-18T19:38:06.413Z,4.30
2018-08-18T19:40:36.141Z,3.73
2018-08-18T19:43:08.574Z,4.27
2018-08-18T19:45:37.107Z,4.37
2018-08-18T19:48:05.673Z,5.43
2018-08-18T19:50:34.246Z,4.60
2018-08-18T19:53:08.035Z,4.17
2018-08-18T19:55:36.579Z,4.97
2018-08-18T19:58:05.192Z,4.87
2018-08-18T20:00:33.733Z,5.60
2018-08-18T20:03:11.629Z,5.13
2018-08-18T20:05:40.160Z,5.57
2018-08-18T20:08:08.672Z,5.40
2018-08-18T20:10:44.384Z,5.40
2018-08-18T20:13:13.809Z,5.87
2018-08-18T20:15:44.610Z,6.00
2018-08-18T20:18:13.177Z,6.47
2018-08-18T20:20:41.712Z,6.23
2018-08-18T20:23:10.264Z,5.90
2018-08-18T20:25:38.842Z,6.63
2018-08-18T20:28:07.515Z,6.43
2018-08-18T20:30:36.025Z,6.73
2018-08-18T20:33:04.583Z,7.07
2018-08-18T20:35:33.101Z,6.37
2018-08-18T20:38:01.679Z,7.07
2018-08-18T20:40:30.225Z,7.17
2018-08-18T20:42:58.738Z,6.50
2018-08-18T20:52:36.649Z,7.10
2018-08-18T20:55:05.306Z,6.70
2018-08-18T20:57:33.845Z,6.83
2018-08-18T21:00:02.436Z,7.07
2018-08-18T21:02:30.926Z,7.50
2018-08-18T21:05:01.663Z,6.73
2018-08-18T21:07:31.384Z,6.93
2018-08-18T21:10:00.609Z,6.00
2018-08-18T21:12:34.250Z,6.40
2018-08-18T21:15:03.192Z,6.83
2018-08-18T21:17:31.858Z,7.13
2018-08-18T21:20:00.405Z,6.70
2018-08-18T21:22:30.966Z,6.63
2018-08-18T21:25:00.159Z,6.57
2018-08-18T21:27:28.706Z,5.97
2018-08-18T21:29:58.144Z,6.43
2018-08-18T21:32:27.855Z,6.13
2018-08-18T21:34:56.525Z,5.60
2018-08-18T21:37:25.065Z,5.23
2018-08-18T21:39:53.826Z,6.27
2018-08-18T21:42:22.357Z,5.30
2018-08-18T21:44:53.640Z,6.00
2018-08-18T21:47:22.176Z,5.70
2018-08-18T21:49:50.695Z,6.23
2018-08-18T21:52:19.227Z,5.00
2018-08-18T21:54:47.746Z,5.50
2018-08-18T21:57:16.262Z,5.17
2018-08-18T21:59:54.373Z,4.90
2018-08-18T22:02:37.524Z,4.93
2018-08-18T22:05:07.462Z,5.10
2018-08-18T22:07:41.387Z,5.20
2018-08-18T22:10:10.730Z,4.77
2018-08-18T22:12:39.603Z,4.57
2018-08-18T22:15:17.109Z,4.90
2018-08-18T22:17:47.184Z,4.70
2018-08-18T22:20:16.624Z,4.43
2018-08-18T22:22:45.245Z,4.33
2018-08-18T22:25:14.109Z,4.37
2018-08-18T22:27:42.627Z,4.70
2018-08-18T22:30:13.186Z,4.83
2018-08-18T22:32:43.858Z,4.85
2018-08-18T22:35:13.037Z,4.97
2018-08-18T22:37:41.938Z,4.00
2018-08-18T22:40:11.341Z,4.50
2018-08-18T22:42:39.857Z,4.37
2018-08-18T22:45:19.671Z,4.70
2018-08-18T22:47:48.197Z,4.50
2018-08-18T22:50:16.713Z,4.30
2018-08-18T22:52:48.373Z,4.77
2018-08-18T22:55:17.057Z,4.10
2018-08-18T22:58:03.030Z,4.67
2018-08-18T23:00:36.000Z,4.73
2018-08-18T23:03:04.538Z,4.20
2018-08-18T23:05:33.066Z,4.47
2018-08-18T23:08:01.587Z,4.83
2018-08-18T23:10:31.452Z,5.47
2018-08-18T23:13:00.813Z,4.67
2018-08-18T23:15:29.498Z,4.50
2018-08-18T23:17:58.034Z,4.53
2018-08-18T23:20:26.573Z,4.63
2018-08-18T23:22:58.853Z,4.27
2018-08-18T23:25:28.621Z,5.07
2018-08-18T23:27:57.547Z,4.80
2018-08-18T23:30:31.211Z,4.97
2018-08-18T23:32:59.800Z,4.47
2018-08-18T23:35:29.130Z,4.97
2018-08-18T23:37:57.917Z,5.23
2018-08-18T23:40:26.617Z,5.00
2018-08-18T23:42:55.257Z,4.93
2018-08-18T23:45:24.326Z,5.10
2018-08-18T23:47:58.099Z,5.07
2018-08-18T23:50:27.465Z,5.17
2018-08-18T23:52:59.104Z,4.90
2018-08-18T23:55:28.888Z,5.37
2018-08-18T23:57:57.516Z,5.60
